Time;durP1;ratioP1;P1;durP2;ratioP2;P2;SDS_P1;SDS_P2;PMS_P1;PMS_P2;Temp;Humidity;BMP_temperature;BMP_pressure;BME280_temperature;BME280_humidity;BME280_pressure;Samples;Min_cycle;Max_cycle;Signal;HPM_P1;HPM_P2
2021/06/04 00:01:04;;;;;;;;;;;;;;;19.74;53.17;100287.88;5091494;28;20287;-53
2021/06/04 00:03:29;;;;;;;;;;;;;;;19.75;53.51;100283.34;5091391;28;19912;-53
2021/06/04 00:05:55;;;;;;;;;;;;;;;19.92;52.91;100287.59;5091515;28;19919;-51
2021/06/04 00:08:21;;;;;;;;;;;;;;;19.98;52.88;100285.75;5091323;28;19916;-53
2021/06/04 00:10:47;;;;;;;;;;;;;;;19.95;52.96;100283.56;5091116;28;20408;-51
2021/06/04 00:13:15;;;;;;;;;;;;;;;20.03;52.77;100290.38;5091642;28;19934;-52
2021/06/04 00:15:40;;;;;;;;;;;;;;;19.91;53.06;100285.97;5091166;28;19949;-50
2021/06/04 00:18:06;;;;;;;;;;;;;;;19.89;53.31;100279.97;5091032;28;19912;-50
2021/06/04 00:20:31;;;;;;;;;;;;;;;19.98;52.73;100287.66;5090878;28;19912;-52
2021/06/04 00:22:56;;;;;;;;;;;;;;;19.84;52.93;100282.63;5103399;28;19912;-49
2021/06/04 00:25:22;;;;;;;;;;;;;;;19.85;53.34;100276.16;5111515;28;19980;-52
2021/06/04 00:27:47;;;;;;;;;;;;;;;19.76;53.52;100274.97;5111321;28;20287;-51
2021/06/04 00:30:14;;;;;;;;;;;;;;;19.83;53.58;100274.78;5111314;28;19941;-49
2021/06/04 00:32:39;;;;;;;;;;;;;;;19.92;53.27;100268.69;5110117;28;19912;-52
2021/06/04 00:35:05;;;;;;;;;;;;;;;19.81;53.29;100268.81;5111451;28;19918;-51
2021/06/04 00:37:31;;;;;;;;;;;;;;;19.79;53.02;100274.47;5112133;28;19985;-53
2021/06/04 00:39:56;;;;;;;;;;;;;;;19.92;52.77;100275.97;5111042;28;20345;-51
2021/06/04 00:42:23;;;;;;;;;;;;;;;19.67;53.28;100260.25;5111419;28;20011;-51
2021/06/04 00:44:48;;;;;;;;;;;;;;;19.52;53.49;100264.38;5111225;28;20459;-50
2021/06/04 00:47:14;;;;;;;;;;;;;;;19.18;54.15;100265.53;5111659;28;20006;-52
2021/06/04 00:49:39;;;;;;;;;;;;;;;19.24;53.98;100262.66;5111236;28;20344;-51
2021/06/04 00:52:09;;;;;;;;;;;;;;;19.22;54.40;100266.66;5105286;28;19963;-51
2021/06/04 00:54:34;;;;;;;;;;;;;;;19.06;54.68;100257.53;5089681;28;19951;-51
2021/06/04 00:57:00;;;;;;;;;;;;;;;19.06;54.57;100268.34;5090788;28;19950;-50
2021/06/04 00:59:31;;;;;;;;;;;;;;;18.94;54.63;100269.25;5090689;28;20314;-52
2021/06/04 01:01:57;;;;;;;;;;;;;;;19.16;53.95;100273.88;5093620;28;19919;-51
2021/06/04 01:04:24;;;;;;;;;;;;;;;19.30;53.31;100268.94;5094635;28;19912;-50
2021/06/04 01:07:08;;;;;;;;;;;;;;;19.16;53.87;100279.25;5094700;28;19940;-50
2021/06/04 01:09:54;;;;;;;;;;;;;;;19.40;53.06;100277.19;5094468;28;19952;-51
2021/06/04 01:12:35;;;;;;;;;;;;;;;19.11;54.08;100269.22;5093420;28;20371;-53
2021/06/04 01:15:18;;;;;;;;;;;;;;;19.14;54.08;100271.41;5094799;28;19966;-50
2021/06/04 01:17:51;;;;;;;;;;;;;;;19.00;54.60;100272.84;5094435;28;19920;-50
2021/06/04 01:20:20;;;;;;;;;;;;;;;19.12;54.19;100273.53;5093032;28;19970;-50
2021/06/04 01:22:58;;;;;;;;;;;;;;;19.21;54.01;100271.25;5103878;28;20282;-50
2021/06/04 01:25:32;;;;;;;;;;;;;;;18.77;54.69;100249.50;5114757;28;19975;-50
2021/06/04 01:27:57;;;;;;;;;;;;;;;18.97;54.98;100272.50;5113598;28;19912;-51
2021/06/04 01:30:23;;;;;;;;;;;;;;;18.50;56.52;100273.59;5113285;28;19920;-52
2021/06/04 01:32:48;;;;;;;;;;;;;;;18.68;55.82;100273.38;5114260;28;19912;-51
2021/06/04 01:35:19;;;;;;;;;;;;;;;18.81;55.46;100274.13;5114873;28;19922;-48
2021/06/04 01:37:44;;;;;;;;;;;;;;;18.89;55.40;100281.81;5113198;28;19915;-51
2021/06/04 01:40:15;;;;;;;;;;;;;;;19.01;55.45;100276.34;5113370;28;20381;-50
2021/06/04 01:42:42;;;;;;;;;;;;;;;19.00;55.49;100278.22;5113298;28;19912;-52
2021/06/04 01:45:07;;;;;;;;;;;;;;;18.87;56.21;100283.94;5114663;28;20019;-50
2021/06/04 01:47:37;;;;;;;;;;;;;;;18.86;56.18;100293.09;5114280;28;20010;-52
2021/06/04 01:50:29;;;;;;;;;;;;;;;18.85;55.58;100289.56;5113026;28;19923;-50
2021/06/04 01:52:55;;;;;;;;;;;;;;;18.77;56.04;100289.94;5101776;28;19916;-49
2021/06/04 01:55:22;;;;;;;;;;;;;;;18.72;56.28;100292.56;5093035;28;19977;-50
2021/06/04 01:57:49;;;;;;;;;;;;;;;18.77;56.36;100292.63;5093868;28;20010;-50
2021/06/04 02:00:24;;;;;;;;;;;;;;;18.81;56.17;100293.84;5092623;28;19923;-53
2021/06/04 02:02:49;;;;;;;;;;;;;;;18.74;56.25;100296.63;5093925;28;20047;-49
2021/06/04 02:05:16;;;;;;;;;;;;;;;18.52;57.06;100298.41;5092278;28;20004;-50
2021/06/04 02:07:41;;;;;;;;;;;;;;;18.42;57.59;100295.53;5093369;28;19912;-52
2021/06/04 02:10:08;;;;;;;;;;;;;;;18.40;57.77;100295.78;5092943;28;19923;-50
2021/06/04 02:12:33;;;;;;;;;;;;;;;18.63;56.82;100300.22;5092462;28;19916;-52
2021/06/04 02:14:59;;;;;;;;;;;;;;;18.44;57.40;100296.13;5093100;28;19916;-53
2021/06/04 02:17:31;;;;;;;;;;;;;;;18.57;56.75;100309.28;5091984;28;19924;-52
2021/06/04 02:20:04;;;;;;;;;;;;;;;18.26;57.30;100303.34;5093534;28;19919;-52
2021/06/04 02:22:29;;;;;;;;;;;;;;;18.35;57.40;100304.59;5102369;28;19912;-53
2021/06/04 02:25:04;;;;;;;;;;;;;;;18.56;56.45;100304.94;5114048;28;20286;-52
2021/06/04 02:27:32;;;;;;;;;;;;;;;18.66;56.27;100309.72;5112344;28;19912;-53
2021/06/04 02:29:59;;;;;;;;;;;;;;;18.64;56.33;100301.88;5113739;28;19925;-52
2021/06/04 02:32:31;;;;;;;;;;;;;;;18.55;56.35;100306.03;5112380;28;19916;-52
2021/06/04 02:35:03;;;;;;;;;;;;;;;18.68;55.90;100305.72;5113499;28;19912;-50
2021/06/04 02:37:28;;;;;;;;;;;;;;;18.43;56.48;100306.09;5113539;28;19918;-53
2021/06/04 02:39:57;;;;;;;;;;;;;;;18.43;55.97;100308.78;5113316;28;19916;-52
2021/06/04 02:42:22;;;;;;;;;;;;;;;18.58;55.85;100312.78;5112181;28;19912;-52
2021/06/04 02:44:51;;;;;;;;;;;;;;;18.45;56.16;100317.44;5113213;28;20014;-54
2021/06/04 02:47:18;;;;;;;;;;;;;;;18.52;56.04;100310.03;5113065;28;19918;-50
2021/06/04 02:49:44;;;;;;;;;;;;;;;18.67;55.80;100317.53;5111818;28;19945;-51
2021/06/04 02:52:27;;;;;;;;;;;;;;;18.66;55.61;100312.41;5106563;28;19916;-52
2021/06/04 02:54:52;;;;;;;;;;;;;;;18.64;55.80;100315.34;5091589;28;19966;-52
2021/06/04 02:57:19;;;;;;;;;;;;;;;18.59;55.60;100317.94;5091376;28;20340;-52
2021/06/04 02:59:45;;;;;;;;;;;;;;;18.59;56.03;100320.63;5092617;28;19970;-49
2021/06/04 03:02:14;;;;;;;;;;;;;;;18.63;55.84;100321.78;5092699;28;19912;-50
2021/06/04 03:04:43;;;;;;;;;;;;;;;18.58;55.91;100320.88;5092430;28;20024;-51
2021/06/04 03:07:12;;;;;;;;;;;;;;;18.65;55.70;100322.34;5092454;28;20328;-49
2021/06/04 03:09:39;;;;;;;;;;;;;;;18.70;55.48;100330.53;5092219;28;19917;-50
2021/06/04 03:12:06;;;;;;;;;;;;;;;18.76;56.13;100342.22;5092091;28;19923;-50
2021/06/04 03:14:31;;;;;;;;;;;;;;;18.76;55.74;100337.66;5091395;28;20449;-50
2021/06/04 03:16:57;;;;;;;;;;;;;;;18.75;55.61;100337.88;5091036;28;19920;-49
2021/06/04 03:19:22;;;;;;;;;;;;;;;18.75;55.33;100340.59;5091419;28;20018;-49
2021/06/04 03:21:51;;;;;;;;;;;;;;;18.93;54.69;100343.09;5094524;28;19964;-50
2021/06/04 03:24:17;;;;;;;;;;;;;;;19.01;54.27;100343.75;5111916;28;19972;-50
2021/06/04 03:26:42;;;;;;;;;;;;;;;18.99;54.16;100346.69;5111676;28;19912;-52
2021/06/04 03:29:09;;;;;;;;;;;;;;;19.00;53.23;100342.94;5111645;28;19912;-52
2021/06/04 03:31:34;;;;;;;;;;;;;;;18.95;53.02;100350.94;5111601;28;20351;-51
2021/06/04 03:34:00;;;;;;;;;;;;;;;18.83;53.39;100348.31;5111714;28;19912;-49
2021/06/04 03:36:26;;;;;;;;;;;;;;;18.82;53.65;100360.16;5111769;28;19951;-50
2021/06/04 03:38:52;;;;;;;;;;;;;;;18.86;53.36;100357.78;5111375;28;19912;-52
2021/06/04 03:41:19;;;;;;;;;;;;;;;18.90;53.30;100358.94;5109927;28;19927;-51
2021/06/04 03:43:45;;;;;;;;;;;;;;;18.81;53.86;100365.78;5111393;28;19922;-50
2021/06/04 03:46:10;;;;;;;;;;;;;;;18.84;53.93;100360.72;5111302;28;19912;-52
2021/06/04 03:48:35;;;;;;;;;;;;;;;18.86;54.59;100364.00;5111051;28;20324;-50
2021/06/04 03:51:03;;;;;;;;;;;;;;;19.02;55.88;100367.78;5111107;28;20347;-51
2021/06/04 03:53:29;;;;;;;;;;;;;;;19.05;57.56;100364.59;5094927;28;19919;-51
2021/06/04 03:55:54;;;;;;;;;;;;;;;19.36;57.36;100369.66;5090828;28;19916;-52
2021/06/04 03:58:20;;;;;;;;;;;;;;;19.39;53.42;100361.88;5090737;28;19915;-50
2021/06/04 04:00:47;;;;;;;;;;;;;;;19.68;51.55;100356.38;5084581;28;19916;-53
2021/06/04 04:03:14;;;;;;;;;;;;;;;19.70;52.99;100365.88;5087792;28;20063;-53
2021/06/04 04:05:39;;;;;;;;;;;;;;;19.70;50.98;100362.34;5085435;28;20365;-51
2021/06/04 04:08:04;;;;;;;;;;;;;;;19.98;51.84;100368.69;5083244;28;19916;-52
2021/06/04 04:10:29;;;;;;;;;;;;;;;20.18;50.21;100368.94;5090383;28;19916;-52
2021/06/04 04:12:55;;;;;;;;;;;;;;;20.19;48.87;100369.75;5090403;28;20019;-51
2021/06/04 04:15:21;;;;;;;;;;;;;;;20.06;50.51;100368.25;5076973;28;19916;-54
2021/06/04 04:17:47;;;;;;;;;;;;;;;19.99;49.81;100373.00;5068959;28;19928;-52
2021/06/04 04:20:13;;;;;;;;;;;;;;;19.88;49.73;100369.38;5068974;28;19913;-51
2021/06/04 04:22:38;;;;;;;;;;;;;;;19.72;50.82;100371.88;5088899;28;19912;-50
2021/06/04 04:25:05;;;;;;;;;;;;;;;19.68;51.91;100375.25;5109380;28;19919;-50
2021/06/04 04:27:30;;;;;;;;;;;;;;;19.78;52.71;100371.91;5109181;28;19962;-48
2021/06/04 04:29:55;;;;;;;;;;;;;;;20.16;50.50;100371.06;5079256;28;19959;-50
2021/06/04 04:32:20;;;;;;;;;;;;;;;20.43;49.34;100365.72;5079617;28;20292;-50
2021/06/04 04:34:46;;;;;;;;;;;;;;;20.59;48.15;100374.78;5069303;28;19962;-51
2021/06/04 04:37:11;;;;;;;;;;;;;;;20.70;47.64;100373.03;5083307;28;20330;-52
2021/06/04 04:39:37;;;;;;;;;;;;;;;20.79;47.56;100374.22;5096340;28;19912;-50
2021/06/04 04:42:04;;;;;;;;;;;;;;;20.72;47.99;100370.09;5096687;28;20441;-50
2021/06/04 04:44:30;;;;;;;;;;;;;;;20.83;47.73;100377.22;5097015;28;19969;-48
2021/06/04 04:46:56;;;;;;;;;;;;;;;20.98;47.07;100384.66;5096564;28;20280;-51
2021/06/04 04:49:21;;;;;;;;;;;;;;;20.94;47.11;100383.53;5095959;28;19919;-48
2021/06/04 04:51:47;;;;;;;;;;;;;;;20.98;47.65;100385.50;5096455;28;19919;-49
2021/06/04 04:54:13;;;;;;;;;;;;;;;21.07;47.32;100388.53;5096504;28;19912;-51
2021/06/04 04:56:40;;;;;;;;;;;;;;;21.17;46.96;100395.91;5096854;28;19912;-52
2021/06/04 04:59:05;;;;;;;;;;;;;;;21.10;47.42;100385.31;5096413;28;19995;-51
2021/06/04 05:01:30;;;;;;;;;;;;;;;21.31;47.42;100383.59;5096475;28;20006;-53
2021/06/04 05:03:56;;;;;;;;;;;;;;;21.09;47.95;100386.38;5096701;28;19916;-51
2021/06/04 05:06:21;;;;;;;;;;;;;;;21.29;47.08;100383.84;5095729;28;19919;-49
2021/06/04 05:08:47;;;;;;;;;;;;;;;21.28;47.28;100381.38;5095707;28;20002;-51
2021/06/04 05:11:12;;;;;;;;;;;;;;;21.35;46.65;100375.75;5094068;28;19916;-51
2021/06/04 05:13:38;;;;;;;;;;;;;;;21.44;46.55;100382.38;5094285;28;20386;-51
2021/06/04 05:16:04;;;;;;;;;;;;;;;21.45;46.12;100381.28;5095282;28;19931;-52
2021/06/04 05:18:30;;;;;;;;;;;;;;;21.72;45.62;100383.88;5093589;28;19912;-52
2021/06/04 05:20:55;;;;;;;;;;;;;;;21.99;45.54;100385.63;5095487;28;20022;-51
2021/06/04 05:23:21;;;;;;;;;;;;;;;22.10;45.03;100379.19;5111296;28;19984;-51
2021/06/04 05:25:47;;;;;;;;;;;;;;;22.20;44.03;100391.97;5115559;28;19912;-52
2021/06/04 05:28:16;;;;;;;;;;;;;;;22.30;44.30;100394.75;5115345;27;20276;-52
2021/06/04 05:30:42;;;;;;;;;;;;;;;22.19;44.59;100396.56;5115703;28;20387;-50
2021/06/04 05:33:08;;;;;;;;;;;;;;;21.72;45.53;100393.91;5115448;28;20458;-51
2021/06/04 05:35:34;;;;;;;;;;;;;;;22.02;45.19;100396.78;5115710;28;20067;-51
2021/06/04 05:37:59;;;;;;;;;;;;;;;22.28;44.88;100398.81;5115350;28;20316;-51
2021/06/04 05:40:26;;;;;;;;;;;;;;;22.34;44.46;100395.06;5115128;28;19915;-52
2021/06/04 05:42:52;;;;;;;;;;;;;;;22.40;45.01;100407.53;5114152;28;20383;-54
2021/06/04 05:45:18;;;;;;;;;;;;;;;22.72;43.58;100398.41;5115425;28;19947;-52
2021/06/04 05:47:44;;;;;;;;;;;;;;;22.95;42.87;100402.50;5112469;28;19919;-51
2021/06/04 05:50:13;;;;;;;;;;;;;;;22.95;42.86;100384.31;5112341;28;19916;-51
2021/06/04 05:52:39;;;;;;;;;;;;;;;23.28;42.56;100414.75;5103519;28;19946;-49
2021/06/04 05:55:04;;;;;;;;;;;;;;;22.95;42.71;100416.88;5091923;28;19959;-51
2021/06/04 05:57:30;;;;;;;;;;;;;;;23.61;41.65;100410.66;5091755;28;20071;-53
2021/06/04 05:59:55;;;;;;;;;;;;;;;24.14;40.98;100413.00;5091699;28;20208;-50
2021/06/04 06:02:20;;;;;;;;;;;;;;;24.29;40.23;100409.38;5090017;28;19931;-50
2021/06/04 06:04:46;;;;;;;;;;;;;;;24.30;39.79;100393.91;5091515;28;20016;-51
2021/06/04 06:07:11;;;;;;;;;;;;;;;25.08;38.60;100416.88;5091725;28;19922;-51
2021/06/04 06:09:36;;;;;;;;;;;;;;;25.17;37.98;100415.16;5091178;28;20349;-52
2021/06/04 06:12:02;;;;;;;;;;;;;;;25.70;36.81;100411.69;5090178;28;19927;-53
2021/06/04 06:14:27;;;;;;;;;;;;;;;25.87;36.85;100409.31;5091411;28;19946;-52
2021/06/04 06:16:52;;;;;;;;;;;;;;;26.39;35.86;100408.72;5091371;28;19920;-51
2021/06/04 06:19:18;;;;;;;;;;;;;;;26.55;35.67;100417.53;5092089;28;19916;-51
2021/06/04 06:21:44;;;;;;;;;;;;;;;27.14;34.93;100427.06;5093981;28;19938;-53
2021/06/04 06:24:09;;;;;;;;;;;;;;;27.15;34.09;100414.19;5110362;28;19977;-49
2021/06/04 06:26:35;;;;;;;;;;;;;;;27.41;33.99;100423.63;5111948;28;20347;-51
2021/06/04 06:29:00;;;;;;;;;;;;;;;26.38;35.71;100420.75;5111584;28;19915;-49
2021/06/04 06:31:27;;;;;;;;;;;;;;;26.87;34.66;100420.38;5111279;28;20020;-51
2021/06/04 06:33:53;;;;;;;;;;;;;;;27.05;35.07;100420.63;5111076;28;19954;-50
2021/06/04 06:36:19;;;;;;;;;;;;;;;27.41;34.91;100414.63;5111041;28;19943;-49
2021/06/04 06:38:46;;;;;;;;;;;;;;;26.76;35.11;100418.09;5112118;28;19946;-48
2021/06/04 06:41:11;;;;;;;;;;;;;;;26.83;35.18;100407.63;5112003;28;19915;-50
2021/06/04 06:43:37;;;;;;;;;;;;;;;26.91;35.30;100412.41;5111741;28;19969;-51
2021/06/04 06:46:02;;;;;;;;;;;;;;;27.18;34.31;100413.63;5112346;28;19912;-38
2021/06/04 06:48:28;;;;;;;;;;;;;;;27.17;34.90;100404.63;5112138;28;19912;-38
2021/06/04 06:50:54;;;;;;;;;;;;;;;27.75;33.91;100403.34;5112450;28;20357;-38
2021/06/04 06:53:22;;;;;;;;;;;;;;;28.12;33.60;100398.81;5097531;28;19923;-37
2021/06/04 06:55:47;;;;;;;;;;;;;;;28.20;32.80;100400.81;5092232;28;19951;-37
2021/06/04 06:58:12;;;;;;;;;;;;;;;28.47;32.80;100401.91;5091930;28;19959;-37
2021/06/04 07:00:39;;;;;;;;;;;;;;;28.58;32.84;100402.53;5091936;28;20329;-38
2021/06/04 07:03:04;;;;;;;;;;;;;;;28.21;32.90;100398.91;5092287;28;20416;-39
2021/06/04 07:05:30;;;;;;;;;;;;;;;28.50;32.61;100404.00;5091808;28;20383;-38
2021/06/04 07:07:56;;;;;;;;;;;;;;;28.34;32.82;100400.81;5092016;28;19941;-37
2021/06/04 07:10:22;;;;;;;;;;;;;;;27.90;33.21;100401.47;5092013;28;20299;-38
2021/06/04 07:12:47;;;;;;;;;;;;;;;28.02;33.15;100399.81;5092107;28;19991;-39
2021/06/04 07:15:13;;;;;;;;;;;;;;;28.43;32.95;100404.44;5091711;28;20065;-38
2021/06/04 07:17:39;;;;;;;;;;;;;;;28.51;33.16;100404.84;5090402;28;20418;-37
2021/06/04 07:20:05;;;;;;;;;;;;;;;28.37;33.14;100397.47;5092057;28;19924;-37
2021/06/04 07:22:31;;;;;;;;;;;;;;;28.68;32.57;100405.00;5100632;28;20374;-39
2021/06/04 07:24:57;;;;;;;;;;;;;;;28.23;32.37;100399.41;5111576;28;20061;-39
2021/06/04 07:27:22;;;;;;;;;;;;;;;28.78;31.60;100403.97;5112013;28;20041;-38
2021/06/04 07:29:48;;;;;;;;;;;;;;;29.01;31.22;100400.09;5112021;28;19920;-37
2021/06/04 07:32:13;;;;;;;;;;;;;;;29.40;31.36;100408.78;5112096;28;20282;-38
2021/06/04 07:34:38;;;;;;;;;;;;;;;29.15;30.31;100412.97;5112245;28;19916;-38
2021/06/04 07:37:04;;;;;;;;;;;;;;;28.00;31.17;100412.19;5111966;28;19961;-38
2021/06/04 07:39:30;;;;;;;;;;;;;;;27.94;32.39;100411.47;5111801;28;19911;-38
2021/06/04 07:41:56;;;;;;;;;;;;;;;28.35;31.53;100413.38;5112031;28;19919;-38
2021/06/04 07:44:21;;;;;;;;;;;;;;;29.14;30.91;100416.84;5111819;28;20045;-38
2021/06/04 07:46:47;;;;;;;;;;;;;;;29.54;30.74;100419.66;5111818;28;19919;-38
2021/06/04 07:49:12;;;;;;;;;;;;;;;30.01;29.21;100420.06;5096551;28;20344;-40
2021/06/04 07:51:39;;;;;;;;;;;;;;;30.11;29.54;100405.22;5091222;28;20304;-39
2021/06/04 07:54:05;;;;;;;;;;;;;;;30.46;29.73;100408.84;5091274;28;19912;-39
2021/06/04 07:56:30;;;;;;;;;;;;;;;30.56;29.41;100416.00;5091328;28;19916;-39
2021/06/04 07:58:55;;;;;;;;;;;;;;;30.79;29.34;100413.91;5090981;28;19920;-39
2021/06/04 08:01:21;;;;;;;;;;;;;;;30.32;27.97;100398.03;5091118;28;19912;-39
2021/06/04 08:03:46;;;;;;;;;;;;;;;29.42;29.39;100417.50;5091060;28;19919;-38
2021/06/04 08:06:12;;;;;;;;;;;;;;;29.01;30.70;100415.75;5091173;28;19912;-38
2021/06/04 08:08:37;;;;;;;;;;;;;;;29.98;29.77;100416.00;5091162;28;19927;-38
2021/06/04 08:11:05;;;;;;;;;;;;;;;30.20;29.46;100417.03;5089726;28;20237;-38
2021/06/04 08:13:30;;;;;;;;;;;;;;;30.62;28.80;100422.94;5091152;28;20245;-40
2021/06/04 08:15:56;;;;;;;;;;;;;;;30.76;27.83;100414.53;5090797;28;20363;-38
2021/06/04 08:18:22;;;;;;;;;;;;;;;31.20;27.31;100415.31;5090907;28;19985;-39
2021/06/04 08:20:48;;;;;;;;;;;;;;;31.49;27.42;100417.41;5089443;28;20245;-37
2021/06/04 08:23:15;;;;;;;;;;;;;;;32.14;26.05;100414.56;5105486;28;19915;-38
2021/06/04 08:25:42;;;;;;;;;;;;;;;32.32;25.43;100415.25;5111063;28;19912;-37
2021/06/04 08:28:07;;;;;;;;;;;;;;;31.63;26.07;100408.16;5110824;28;19912;-39
2021/06/04 08:30:33;;;;;;;;;;;;;;;32.26;25.36;100411.88;5110705;28;19916;-39
2021/06/04 08:32:59;;;;;;;;;;;;;;;31.41;26.26;100409.94;5110906;28;19912;-41
2021/06/04 08:35:24;;;;;;;;;;;;;;;31.21;25.61;100402.41;5110996;28;19912;-39
2021/06/04 08:37:50;;;;;;;;;;;;;;;31.34;25.77;100412.41;5111385;28;20014;-44
2021/06/04 08:40:17;;;;;;;;;;;;;;;31.82;25.48;100408.53;5110902;28;20049;-43
2021/06/04 08:42:54;;;;;;;;;;;;;;;32.34;24.77;100410.22;5111178;28;20280;-40
2021/06/04 08:45:22;;;;;;;;;;;;;;;31.57;25.37;100413.00;5109582;28;20395;-38
2021/06/04 08:47:52;;;;;;;;;;;;;;;31.60;24.71;100400.53;5110722;28;20428;-40
2021/06/04 08:50:23;;;;;;;;;;;;;;;31.29;25.15;100409.81;5109049;28;19955;-42
2021/06/04 08:53:11;;;;;;;;;;;;;;;31.28;25.06;100413.69;5100267;28;19973;-38
2021/06/04 08:55:36;;;;;;;;;;;;;;;31.54;26.64;100414.47;5072098;28;19980;-38
2021/06/04 08:58:04;;;;;;;;;;;;;;;32.10;25.07;100410.84;5090246;28;20364;-38
2021/06/04 09:00:30;;;;;;;;;;;;;;;31.61;25.72;100413.97;5090686;28;19912;-38
2021/06/04 09:03:02;;;;;;;;;;;;;;;31.89;24.97;100406.09;5088364;28;19923;-39
2021/06/04 09:05:44;;;;;;;;;;;;;;;32.22;24.70;100416.44;5089856;28;20272;-38
2021/06/04 09:08:11;;;;;;;;;;;;;;;32.20;25.23;100415.97;5088676;28;19913;-39
2021/06/04 09:10:45;;;;;;;;;;;;;;;31.84;25.77;100409.00;5089334;28;19916;-39
2021/06/04 09:13:11;;;;;;;;;;;;;;;32.21;24.72;100412.06;5088329;28;20355;-39
2021/06/04 09:15:37;;;;;;;;;;;;;;;32.25;25.09;100406.72;5089587;28;19916;-39
2021/06/04 09:18:02;;;;;;;;;;;;;;;31.26;25.44;100403.03;5089787;28;19913;-39
2021/06/04 09:20:30;;;;;;;;;;;;;;;31.00;25.26;100400.34;5089729;28;19920;-39
2021/06/04 09:23:02;;;;;;;;;;;;;;;30.42;26.91;100401.59;5104730;28;19920;-39
2021/06/04 09:25:28;;;;;;;;;;;;;;;30.97;26.16;100400.97;5112838;28;19912;-39
2021/06/04 09:28:12;;;;;;;;;;;;;;;30.15;26.30;100395.22;5114229;28;20000;-39
2021/06/04 09:30:41;;;;;;;;;;;;;;;29.81;27.26;100396.72;5113933;28;20399;-38
2021/06/04 09:33:10;;;;;;;;;;;;;;;30.23;26.06;100397.16;5113662;28;19916;-38
2021/06/04 09:35:37;;;;;;;;;;;;;;;29.33;27.01;100392.78;5113700;28;19920;-39
2021/06/04 09:38:16;;;;;;;;;;;;;;;28.71;27.64;100392.63;5112203;28;20360;-39
2021/06/04 09:40:42;;;;;;;;;;;;;;;28.58;27.60;100392.38;5113346;28;19912;-38
2021/06/04 09:43:10;;;;;;;;;;;;;;;27.81;28.58;100387.63;5113140;28;19960;-37
2021/06/04 09:45:37;;;;;;;;;;;;;;;28.75;28.66;100388.97;5113187;28;19968;-38
2021/06/04 09:48:06;;;;;;;;;;;;;;;29.82;27.60;100384.66;5112324;28;20397;-37
2021/06/04 09:50:32;;;;;;;;;;;;;;;30.31;26.66;100382.66;5113495;28;19949;-39
2021/06/04 09:53:07;;;;;;;;;;;;;;;30.65;26.86;100383.03;5101597;28;20361;-38
2021/06/04 09:55:33;;;;;;;;;;;;;;;31.42;26.08;100386.81;5092831;28;19912;-38
2021/06/04 09:57:59;;;;;;;;;;;;;;;31.65;24.48;100379.16;5093027;28;19916;-38
2021/06/04 10:00:26;;;;;;;;;;;;;;;31.41;25.53;100382.44;5092801;28;19960;-38
2021/06/04 10:02:53;;;;;;;;;;;;;;;30.52;25.75;100384.78;5093346;28;20360;-38
2021/06/04 10:05:24;;;;;;;;;;;;;;;30.63;26.44;100366.88;5091780;28;20002;-37
2021/06/04 10:08:07;;;;;;;;;;;;;;;30.68;26.68;100372.22;5092192;28;19912;-38
2021/06/04 10:10:33;;;;;;;;;;;;;;;29.52;27.46;100370.63;5091631;28;19966;-39
2021/06/04 10:13:01;;;;;;;;;;;;;;;28.16;29.65;100372.47;5093270;28;19923;-39
2021/06/04 10:15:31;;;;;;;;;;;;;;;27.06;31.16;100371.19;5091814;28;19940;-39
2021/06/04 10:18:04;;;;;;;;;;;;;;;27.67;31.24;100368.50;5092167;28;19920;-39
2021/06/04 10:20:31;;;;;;;;;;;;;;;29.24;28.30;100362.59;5093032;28;19912;-39
2021/06/04 10:23:02;;;;;;;;;;;;;;;29.39;28.15;100371.53;5092367;28;19996;-38
2021/06/04 10:25:28;;;;;;;;;;;;;;;30.14;27.64;100366.97;5092180;28;20310;-38
2021/06/04 10:27:54;;;;;;;;;;;;;;;30.27;27.02;100364.41;5091076;28;19931;-39
2021/06/04 10:30:46;;;;;;;;;;;;;;;30.56;26.35;100364.63;5092250;28;19942;-39
2021/06/04 10:33:15;;;;;;;;;;;;;;;30.75;26.99;100371.75;5090568;28;19969;-39
2021/06/04 10:35:42;;;;;;;;;;;;;;;30.64;26.29;100373.19;5090720;28;19945;-39
2021/06/04 10:38:19;;;;;;;;;;;;;;;31.24;25.85;100366.00;5091456;28;19919;-39
2021/06/04 10:40:49;;;;;;;;;;;;;;;31.22;25.86;100360.03;5091762;28;20329;-38
2021/06/04 10:43:33;;;;;;;;;;;;;;;31.13;27.22;100358.13;5092581;28;19912;-39
2021/06/04 10:46:18;;;;;;;;;;;;;;;30.69;27.43;100356.53;5092433;28;20055;-39
2021/06/04 10:49:02;;;;;;;;;;;;;;;30.71;26.73;100357.00;5080917;28;20336;-39
2021/06/04 10:51:37;;;;;;;;;;;;;;;30.67;27.43;100359.59;5091935;28;20053;-38
2021/06/04 10:54:24;;;;;;;;;;;;;;;30.32;28.31;100369.78;5070517;28;20399;-39
2021/06/04 10:57:19;;;;;;;;;;;;;;;31.54;26.72;100359.47;5104397;28;20269;-37
2021/06/04 10:59:48;;;;;;;;;;;;;;;32.24;25.14;100350.84;5066988;28;19913;-38
2021/06/04 11:02:19;;;;;;;;;;;;;;;31.53;25.98;100354.31;5104011;28;19930;-38
2021/06/04 11:05:03;;;;;;;;;;;;;;;30.82;26.54;100363.78;5072118;28;19912;-38
2021/06/04 11:07:33;;;;;;;;;;;;;;;31.49;26.97;100356.09;5072147;28;19916;-38
2021/06/04 11:09:58;;;;;;;;;;;;;;;31.97;25.51;100354.91;5104033;28;19966;-38
2021/06/04 11:12:38;;;;;;;;;;;;;;;31.98;24.33;100352.94;5072158;28;19920;-38
2021/06/04 11:15:13;;;;;;;;;;;;;;;32.60;24.70;100356.94;5104289;28;19916;-38
2021/06/04 11:17:38;;;;;;;;;;;;;;;32.12;24.08;100348.00;5104058;28;20339;-38
2021/06/04 11:20:06;;;;;;;;;;;;;;;32.84;23.58;100351.53;5072075;28;20369;-38
2021/06/04 11:22:31;;;;;;;;;;;;;;;32.73;24.10;100348.38;5090408;28;19918;-38
2021/06/04 11:25:16;;;;;;;;;;;;;;;33.15;22.64;100354.94;5112021;28;19911;-38
2021/06/04 11:27:44;;;;;;;;;;;;;;;33.20;23.26;100352.78;5112138;28;19911;-39
2021/06/04 11:30:27;;;;;;;;;;;;;;;33.11;23.29;100347.38;5110691;28;20371;-39
2021/06/04 11:32:58;;;;;;;;;;;;;;;32.20;25.20;100349.91;5112215;27;19918;-39
2021/06/04 11:35:26;;;;;;;;;;;;;;;30.46;27.64;100342.97;5111987;28;19969;-39
2021/06/04 11:38:00;;;;;;;;;;;;;;;29.84;28.75;100338.50;5111875;28;19919;-38
2021/06/04 11:40:28;;;;;;;;;;;;;;;29.82;28.73;100340.75;5111703;28;19912;-38
2021/06/04 11:42:55;;;;;;;;;;;;;;;29.41;28.49;100342.66;5111809;28;19919;-39
2021/06/04 11:45:22;;;;;;;;;;;;;;;28.79;30.31;100346.16;5109581;28;19946;-39
2021/06/04 11:47:47;;;;;;;;;;;;;;;28.75;30.08;100347.06;5109914;28;19999;-38
2021/06/04 11:50:25;;;;;;;;;;;;;;;27.98;31.31;100340.56;5111423;28;19959;-37
2021/06/04 11:52:52;;;;;;;;;;;;;;;28.10;31.54;100340.03;5100515;28;19912;-39
2021/06/04 11:55:28;;;;;;;;;;;;;;;28.37;31.38;100334.53;5091535;28;19912;-39
2021/06/04 11:58:04;;;;;;;;;;;;;;;28.51;30.95;100337.22;5091274;28;19924;-39
2021/06/04 12:00:30;;;;;;;;;;;;;;;28.11;31.14;100331.53;5090348;28;19912;-38
2021/06/04 12:03:04;;;;;;;;;;;;;;;28.09;31.32;100336.50;5090546;28;19912;-38
2021/06/04 12:05:30;;;;;;;;;;;;;;;27.54;31.66;100329.09;5090422;28;19912;-38
2021/06/04 12:08:11;;;;;;;;;;;;;;;26.63;33.32;100324.13;5090677;28;20022;-38
2021/06/04 12:10:48;;;;;;;;;;;;;;;26.31;34.03;100320.19;5090520;28;19920;-39
2021/06/04 12:13:32;;;;;;;;;;;;;;;26.33;34.17;100323.41;5090240;28;20045;-38
2021/06/04 12:16:30;;;;;;;;;;;;;;;27.31;33.02;100330.91;5088032;28;19981;-39
2021/06/04 12:18:58;;;;;;;;;;;;;;;28.08;31.14;100319.28;5087428;28;20461;-39
2021/06/04 12:21:39;;;;;;;;;;;;;;;28.15;31.86;100334.47;5090070;28;19912;-38
2021/06/04 12:24:07;;;;;;;;;;;;;;;29.07;30.69;100326.81;5070313;28;19913;-39
2021/06/04 12:26:40;;;;;;;;;;;;;;;28.54;31.14;100330.31;5070394;28;19927;-39
2021/06/04 12:29:20;;;;;;;;;;;;;;;28.97;29.86;100329.84;5070295;28;19999;-39
2021/06/04 12:32:01;;;;;;;;;;;;;;;28.83;29.04;100327.97;5069865;28;20078;-39
2021/06/04 12:34:36;;;;;;;;;;;;;;;28.26;29.24;100324.91;5069742;28;19912;-39
2021/06/04 12:37:03;;;;;;;;;;;;;;;26.93;31.03;100320.06;5069918;28;19913;-38
2021/06/04 12:39:32;;;;;;;;;;;;;;;26.94;31.03;100320.88;5070035;28;19927;-39
2021/06/04 12:42:03;;;;;;;;;;;;;;;26.48;31.02;100317.75;5069511;28;20518;-39